createdAt,value
2018-06-10T00:00:17.129Z,19.90
2018-06-10T00:01:21.668Z,20.30
2018-06-10T00:02:25.743Z,19.10
2018-06-10T00:03:29.138Z,17.77
2018-06-10T00:04:32.528Z,17.85
2018-06-10T00:05:38.093Z,17.77
2018-06-10T00:06:41.503Z,18.80
2018-06-10T00:07:44.891Z,19.40
2018-06-10T00:08:48.281Z,19.15
2018-06-10T00:09:51.667Z,18.55
2018-06-10T00:10:56.411Z,17.73
2018-06-10T00:11:59.859Z,18.35
2018-06-10T00:13:03.251Z,16.20
2018-06-10T00:14:06.643Z,16.15
2018-06-10T00:15:11.044Z,15.98
2018-06-10T00:16:15.588Z,15.88
2018-06-10T00:17:18.999Z,19.10
2018-06-10T00:18:22.379Z,16.37
2018-06-10T00:19:25.767Z,15.40
2018-06-10T00:20:30.150Z,17.48
2018-06-10T00:21:33.589Z,17.17
2018-06-10T00:22:37.003Z,18.40
2018-06-10T00:23:40.395Z,19.25
2018-06-10T00:24:43.784Z,18.30
2018-06-10T00:25:48.199Z,17.80
2018-06-10T00:26:51.616Z,18.85
2018-06-10T00:27:55.003Z,18.95
2018-06-10T00:29:03.831Z,19.30
2018-06-10T00:30:07.785Z,19.20
2018-06-10T00:31:11.301Z,19.15
2018-06-10T00:32:14.717Z,20.57
2018-06-10T00:33:18.112Z,22.50
2018-06-10T00:34:21.508Z,20.72
2018-06-10T00:35:25.926Z,20.88
2018-06-10T00:36:29.523Z,20.72
2018-06-10T00:37:32.619Z,20.10
2018-06-10T00:38:35.698Z,20.25
2018-06-10T00:39:38.787Z,20.50
2018-06-10T00:40:43.344Z,20.82
2018-06-10T00:41:46.771Z,20.62
2018-06-10T00:42:50.184Z,20.17
2018-06-10T00:43:53.572Z,22.20
2018-06-10T00:44:56.971Z,20.23
2018-06-10T00:46:01.413Z,20.70
2018-06-10T00:47:04.811Z,20.43
2018-06-10T00:48:08.215Z,22.13
2018-06-10T00:49:11.312Z,20.10
2018-06-10T00:50:15.682Z,20.43
2018-06-10T00:51:20.104Z,20.57
2018-06-10T00:52:23.515Z,19.57
2018-06-10T00:53:27.175Z,21.65
2018-06-10T00:54:30.355Z,21.27
2018-06-10T00:55:34.742Z,22.45
2018-06-10T00:56:48.643Z,26.33
2018-06-10T00:57:52.030Z,23.25
2018-06-10T00:58:55.427Z,23.57
2018-06-10T00:59:58.811Z,24.20
2018-06-10T01:01:03.157Z,23.77
2018-06-10T01:02:06.266Z,25.25
2018-06-10T01:03:09.366Z,25.52
2018-06-10T01:04:12.791Z,25.85
2018-06-10T01:05:17.685Z,25.97
2018-06-10T01:06:22.204Z,26.73
2018-06-10T01:07:25.587Z,27.58
2018-06-10T01:08:28.971Z,27.60
2018-06-10T01:09:32.377Z,26.62
2018-06-10T01:10:36.852Z,27.98
2018-06-10T01:11:40.571Z,27.62
2018-06-10T01:12:43.943Z,29.02
2018-06-10T01:13:47.331Z,28.02
2018-06-10T01:14:50.731Z,30.70
2018-06-10T01:15:55.071Z,30.57
2018-06-10T01:16:58.503Z,29.57
2018-06-10T01:18:01.883Z,30.85
2018-06-10T01:19:05.263Z,28.45
2018-06-10T01:20:09.759Z,29.12
2018-06-10T01:21:14.252Z,29.70
2018-06-10T01:22:17.733Z,28.62
2018-06-10T01:23:21.127Z,28.65
2018-06-10T01:24:24.210Z,29.85
2018-06-10T01:25:28.101Z,30.62
2018-06-10T01:26:36.810Z,28.67
2018-06-10T01:27:40.251Z,27.42
2018-06-10T01:28:43.643Z,27.48
2018-06-10T01:29:47.643Z,26.02
2018-06-10T01:30:52.299Z,25.70
2018-06-10T01:31:55.735Z,26.75
2018-06-10T01:32:59.143Z,26.05
2018-06-10T01:34:02.532Z,25.43
2018-06-10T01:35:06.913Z,25.75
2018-06-10T01:36:11.438Z,26.62
2018-06-10T01:37:14.847Z,26.85
2018-06-10T01:38:18.231Z,25.52
2018-06-10T01:39:21.619Z,24.37
2018-06-10T01:40:27.017Z,24.92
2018-06-10T01:41:30.891Z,24.37
2018-06-10T01:42:34.276Z,26.37
2018-06-10T01:43:37.370Z,24.37
2018-06-10T01:44:40.756Z,27.93
2018-06-10T01:45:44.636Z,24.65
2018-06-10T01:46:48.067Z,22.62
2018-06-10T01:47:51.455Z,22.58
2018-06-10T01:48:54.851Z,23.73
2018-06-10T01:49:58.243Z,24.63
2018-06-10T01:51:02.668Z,23.60
2018-06-10T01:52:06.127Z,23.50
2018-06-10T01:53:09.530Z,23.20
2018-06-10T01:54:12.918Z,22.95
2018-06-10T01:55:17.344Z,21.35
2018-06-10T01:56:21.697Z,22.30
2018-06-10T01:57:25.136Z,22.25
2018-06-10T01:58:28.520Z,21.12
2018-06-10T01:59:31.908Z,20.75
2018-06-10T02:00:36.832Z,20.50
2018-06-10T02:01:40.258Z,21.27
2018-06-10T02:02:43.679Z,20.17
2018-06-10T02:03:47.087Z,20.45
2018-06-10T02:04:50.472Z,20.57
2018-06-10T02:05:54.879Z,20.20
2018-06-10T02:06:58.287Z,20.12
2018-06-10T02:08:01.964Z,19.45
2018-06-10T02:09:06.507Z,19.50
2018-06-10T02:10:10.941Z,17.25
2018-06-10T02:11:15.398Z,18.42
2018-06-10T02:12:18.815Z,17.07
2018-06-10T02:13:22.218Z,17.55
2018-06-10T02:14:25.611Z,17.75
2018-06-10T02:15:32.225Z,16.95
2018-06-10T02:16:35.310Z,17.02
2018-06-10T02:17:38.386Z,18.05
2018-06-10T02:18:41.795Z,18.42
2018-06-10T02:19:45.484Z,17.98
2018-06-10T02:20:49.862Z,17.82
2018-06-10T02:21:52.971Z,18.20
2018-06-10T02:22:56.359Z,19.35
2018-06-10T02:23:59.764Z,20.25
2018-06-10T02:25:03.223Z,18.50
2018-06-10T02:26:07.703Z,21.10
2018-06-10T02:27:11.128Z,20.62
2018-06-10T02:28:14.515Z,17.65
2018-06-10T02:29:17.922Z,19.17
2018-06-10T02:30:22.470Z,18.48
2018-06-10T02:31:26.736Z,18.62
2018-06-10T02:32:30.140Z,18.62
2018-06-10T02:33:33.752Z,19.42
2018-06-10T02:34:37.155Z,19.50
2018-06-10T02:35:41.449Z,19.37
2018-06-10T02:36:51.121Z,20.35
2018-06-10T02:37:54.283Z,20.00
2018-06-10T02:38:57.365Z,19.65
2018-06-10T02:40:00.459Z,20.97
2018-06-10T02:41:05.727Z,21.02
2018-06-10T02:42:09.152Z,21.85
2018-06-10T02:43:12.537Z,23.40
2018-06-10T02:44:15.928Z,21.68
2018-06-10T02:45:20.361Z,22.62
2018-06-10T02:46:24.377Z,24.32
2018-06-10T02:47:27.788Z,22.65
2018-06-10T02:48:31.171Z,23.32
2018-06-10T02:49:34.555Z,23.75
2018-06-10T02:50:39.075Z,23.77
2018-06-10T02:51:42.499Z,24.25
2018-06-10T02:52:45.574Z,25.37
2018-06-10T02:53:48.675Z,25.02
2018-06-10T02:54:52.067Z,24.45
2018-06-10T02:55:56.579Z,28.87
2018-06-10T02:57:00.008Z,25.62
2018-06-10T02:58:03.453Z,27.85
2018-06-10T02:59:06.896Z,28.02
2018-06-10T03:00:11.903Z,30.27
2018-06-10T03:01:15.683Z,30.43
2018-06-10T03:02:19.095Z,30.02
2018-06-10T03:03:22.507Z,29.90
2018-06-10T03:04:25.597Z,30.50
2018-06-10T03:05:29.482Z,32.67
2018-06-10T03:06:32.926Z,31.15
2018-06-10T03:07:36.335Z,31.48
2018-06-10T03:08:39.739Z,32.85
2018-06-10T03:09:42.827Z,31.40
2018-06-10T03:10:46.551Z,32.13
2018-06-10T03:11:49.995Z,31.77
2018-06-10T03:12:53.400Z,32.50
2018-06-10T03:13:56.471Z,36.98
2018-06-10T03:14:59.577Z,32.35
2018-06-10T03:16:04.491Z,34.92
2018-06-10T03:17:08.047Z,32.23
2018-06-10T03:18:11.436Z,31.30
2018-06-10T03:19:14.828Z,32.03
2018-06-10T03:20:18.721Z,31.82
2018-06-10T03:21:22.844Z,31.50
2018-06-10T03:22:26.308Z,33.35
2018-06-10T03:23:29.707Z,32.50
2018-06-10T03:24:33.099Z,33.10
2018-06-10T03:25:38.253Z,32.48
2018-06-10T03:26:41.682Z,34.13
2018-06-10T03:27:45.100Z,33.23
2018-06-10T03:28:48.487Z,36.13
2018-06-10T03:29:51.566Z,34.23
2018-06-10T03:30:55.648Z,33.60
2018-06-10T03:31:59.056Z,31.00
2018-06-10T03:33:02.150Z,36.30
2018-06-10T03:34:05.223Z,35.28
2018-06-10T03:35:08.909Z,33.78
2018-06-10T03:36:13.343Z,32.55
2018-06-10T03:37:16.751Z,36.70
2018-06-10T03:38:20.163Z,32.48
2018-06-10T03:39:23.544Z,31.07
2018-06-10T03:40:28.233Z,32.40
2018-06-10T03:41:31.648Z,34.13
2018-06-10T03:42:35.040Z,33.95
2018-06-10T03:43:38.443Z,34.08
2018-06-10T03:44:41.827Z,31.50
2018-06-10T03:45:46.799Z,29.87
2018-06-10T03:46:50.211Z,31.82
2018-06-10T03:47:53.603Z,31.52
2018-06-10T03:48:57.031Z,31.82
2018-06-10T03:50:00.421Z,29.27
2018-06-10T03:51:04.995Z,29.37
2018-06-10T03:52:08.399Z,32.55
2018-06-10T03:53:11.791Z,31.37
2018-06-10T03:54:15.171Z,31.17
2018-06-10T03:55:19.705Z,32.63
2018-06-10T03:56:23.875Z,32.33
2018-06-10T03:57:27.324Z,32.80
2018-06-10T03:58:30.715Z,33.95
2018-06-10T03:59:34.111Z,31.65
2018-06-10T04:00:39.570Z,29.60
2018-06-10T04:01:42.666Z,31.48
2018-06-10T04:02:46.140Z,30.35
2018-06-10T04:03:49.528Z,28.75
2018-06-10T04:04:52.927Z,34.30
2018-06-10T04:05:57.437Z,29.80
2018-06-10T04:07:00.864Z,32.00
2018-06-10T04:08:04.255Z,28.25
2018-06-10T04:09:07.977Z,29.77
2018-06-10T04:10:12.426Z,28.40
2018-06-10T04:11:16.890Z,29.65
2018-06-10T04:12:20.311Z,26.77
2018-06-10T04:13:24.559Z,28.02
2018-06-10T04:14:27.947Z,28.52
2018-06-10T04:15:32.472Z,31.93
2018-06-10T04:16:35.879Z,29.15
2018-06-10T04:17:39.264Z,26.62
2018-06-10T04:18:42.651Z,27.17
2018-06-10T04:19:46.046Z,27.55
2018-06-10T04:20:50.606Z,26.90
2018-06-10T04:21:54.028Z,27.35
2018-06-10T04:22:57.411Z,26.17
2018-06-10T04:24:00.795Z,26.68
2018-06-10T04:25:04.892Z,27.65
2018-06-10T04:26:09.473Z,26.73
2018-06-10T04:27:12.895Z,26.40
2018-06-10T04:28:16.279Z,26.15
2018-06-10T04:29:19.671Z,29.60
2018-06-10T04:30:24.097Z,27.17
2018-06-10T04:31:28.423Z,25.82
2018-06-10T04:32:31.502Z,28.77
2018-06-10T04:33:34.583Z,28.02
2018-06-10T04:34:37.967Z,29.18
2018-06-10T04:35:42.415Z,29.48
2018-06-10T04:36:45.847Z,26.93
2018-06-10T04:37:49.239Z,28.38
2018-06-10T04:38:52.323Z,29.45
2018-06-10T04:39:55.425Z,27.60
2018-06-10T04:41:00.391Z,27.25
2018-06-10T04:42:03.804Z,29.42
2018-06-10T04:43:06.887Z,28.80
2018-06-10T04:44:10.269Z,31.87
2018-06-10T04:45:13.930Z,29.18
2018-06-10T04:46:19.023Z,30.32
2018-06-10T04:47:22.515Z,29.90
2018-06-10T04:48:25.899Z,30.35
2018-06-10T04:49:29.283Z,31.15
2018-06-10T04:50:33.657Z,33.10
2018-06-10T04:51:37.080Z,31.77
2018-06-10T04:52:40.484Z,30.35
2018-06-10T04:53:43.867Z,32.67
2018-06-10T04:54:47.262Z,36.85
2018-06-10T04:55:52.114Z,31.05
2018-06-10T04:56:55.524Z,28.90
2018-06-10T04:57:58.919Z,27.17
2018-06-10T04:59:02.300Z,29.48
2018-06-10T05:00:06.727Z,27.82
2018-06-10T05:01:12.135Z,30.23
2018-06-10T05:02:15.583Z,28.47
2018-06-10T05:03:18.988Z,28.52
2018-06-10T05:04:22.363Z,26.97
2018-06-10T05:05:26.681Z,28.45
2018-06-10T05:06:30.459Z,26.20
2018-06-10T05:07:33.863Z,26.23
2018-06-10T05:08:37.314Z,26.73
2018-06-10T05:09:40.691Z,26.42
2018-06-10T05:10:45.075Z,23.80
2018-06-10T05:11:48.472Z,24.25
2018-06-10T05:12:52.127Z,22.77
2018-06-10T05:13:55.211Z,21.40
2018-06-10T05:14:58.284Z,23.02
2018-06-10T05:16:02.807Z,19.05
2018-06-10T05:17:06.223Z,19.95
2018-06-10T05:18:09.645Z,24.50
2018-06-10T05:19:13.031Z,22.75
2018-06-10T05:20:17.404Z,21.02
2018-06-10T05:21:21.764Z,20.97
2018-06-10T05:22:24.855Z,20.75
2018-06-10T05:23:27.969Z,19.60
2018-06-10T05:24:31.359Z,21.87
2018-06-10T05:25:35.908Z,20.92
2018-06-10T05:26:39.019Z,19.70
2018-06-10T05:27:42.412Z,21.33
2018-06-10T05:28:45.831Z,20.08
2018-06-10T05:29:49.244Z,22.50
2018-06-10T05:30:53.760Z,21.12
2018-06-10T05:31:57.184Z,20.35
2018-06-10T05:33:00.570Z,22.70
2018-06-10T05:34:03.999Z,20.48
2018-06-10T05:35:08.536Z,19.42
2018-06-10T05:36:13.154Z,20.25
2018-06-10T05:37:16.573Z,17.67
2018-06-10T05:38:19.959Z,19.85
2018-06-10T05:39:23.409Z,19.73
2018-06-10T05:40:27.920Z,18.65
2018-06-10T05:41:31.026Z,19.73
2018-06-10T05:42:34.122Z,20.85
2018-06-10T05:43:37.503Z,20.43
2018-06-10T05:44:40.606Z,20.50
2018-06-10T05:45:46.082Z,21.15
2018-06-10T05:46:49.195Z,20.55
2018-06-10T05:47:52.619Z,21.52
2018-06-10T05:48:56.014Z,20.40
2018-06-10T05:49:59.435Z,20.95
2018-06-10T05:51:03.271Z,20.02
2018-06-10T05:52:06.682Z,20.55
2018-06-10T05:53:10.068Z,19.73
2018-06-10T05:54:13.451Z,19.82
2018-06-10T05:55:18.302Z,18.57
2018-06-10T05:56:22.634Z,21.17
2018-06-10T05:57:26.037Z,20.20
2018-06-10T05:58:29.411Z,19.45
2018-06-10T05:59:32.802Z,19.55
2018-06-10T06:00:37.328Z,20.20
2018-06-10T06:01:40.774Z,21.93
2018-06-10T06:02:44.167Z,22.65
2018-06-10T06:03:47.560Z,22.77
2018-06-10T06:04:50.939Z,23.00
2018-06-10T06:05:54.973Z,23.40
2018-06-10T06:06:58.404Z,24.80
2018-06-10T06:08:01.808Z,24.40
2018-06-10T06:09:06.339Z,23.77
2018-06-10T06:10:10.827Z,24.75
2018-06-10T06:11:15.387Z,23.62
2018-06-10T06:12:18.788Z,24.37
2018-06-10T06:13:22.202Z,23.02
2018-06-10T06:14:25.589Z,26.37
2018-06-10T06:15:30.098Z,27.55
2018-06-10T06:16:33.311Z,29.05
2018-06-10T06:17:36.391Z,26.20
2018-06-10T06:18:39.771Z,28.95
2018-06-10T06:19:42.847Z,27.65
2018-06-10T06:20:46.494Z,25.60
2018-06-10T06:21:49.949Z,28.42
2018-06-10T06:22:53.359Z,24.67
2018-06-10T06:23:56.747Z,25.05
2018-06-10T06:25:00.135Z,26.68
2018-06-10T06:26:04.462Z,26.55
2018-06-10T06:27:07.885Z,27.67
2018-06-10T06:28:11.231Z,25.88
2018-06-10T06:29:14.615Z,26.00
2018-06-10T06:30:19.538Z,28.45
2018-06-10T06:31:23.791Z,27.02
2018-06-10T06:32:27.215Z,26.40
2018-06-10T06:33:30.831Z,26.75
2018-06-10T06:34:34.209Z,27.17
2018-06-10T06:35:38.704Z,28.30
2018-06-10T06:36:42.108Z,28.00
2018-06-10T06:37:45.503Z,27.87
2018-06-10T06:38:48.896Z,25.92
2018-06-10T06:39:52.275Z,27.05
2018-06-10T06:40:56.743Z,27.52
2018-06-10T06:42:00.167Z,25.68
2018-06-10T06:43:03.608Z,27.80
2018-06-10T06:44:06.997Z,28.62
2018-06-10T06:45:11.495Z,25.08
2018-06-10T06:46:17.799Z,23.77
2018-06-10T06:47:21.243Z,25.23
2018-06-10T06:48:24.648Z,24.07
2018-06-10T06:49:28.027Z,23.85
2018-06-10T06:50:32.900Z,26.07
2018-06-10T06:51:36.367Z,27.35
2018-06-10T06:52:39.789Z,24.20
2018-06-10T06:53:43.173Z,25.10
2018-06-10T06:54:46.280Z,21.93
2018-06-10T06:55:50.750Z,25.68
2018-06-10T06:56:54.171Z,24.60
2018-06-10T06:57:57.621Z,24.15
2018-06-10T06:59:00.993Z,25.23
2018-06-10T07:00:05.468Z,23.55
2018-06-10T07:01:09.409Z,25.27
2018-06-10T07:02:12.887Z,25.65
2018-06-10T07:03:16.275Z,25.57
2018-06-10T07:04:19.698Z,25.17
2018-06-10T07:05:24.194Z,23.67
2018-06-10T07:06:28.011Z,25.00
2018-06-10T07:07:31.396Z,26.55
2018-06-10T07:08:34.776Z,23.30
2018-06-10T07:09:38.185Z,28.07
2018-06-10T07:10:42.656Z,26.95
2018-06-10T07:11:46.064Z,29.52
2018-06-10T07:12:49.159Z,26.37
2018-06-10T07:13:52.551Z,23.95
2018-06-10T07:14:55.971Z,26.17
2018-06-10T07:16:01.919Z,26.17
2018-06-10T07:17:05.360Z,27.25
2018-06-10T07:18:08.757Z,28.17
2018-06-10T07:19:12.143Z,26.87
2018-06-10T07:20:16.735Z,27.22
2018-06-10T07:21:21.310Z,26.62
2018-06-10T07:22:24.419Z,27.87
2018-06-10T07:23:27.830Z,30.00
2018-06-10T07:24:31.227Z,26.10
2018-06-10T07:25:35.692Z,33.05
2018-06-10T07:26:39.108Z,36.00
2018-06-10T07:27:42.189Z,36.85
2018-06-10T07:28:45.575Z,29.85
2018-06-10T07:29:48.964Z,32.30
2018-06-10T07:30:53.501Z,33.38
2018-06-10T07:31:56.907Z,31.00
2018-06-10T07:33:00.299Z,30.27
2018-06-10T07:34:03.681Z,30.72
2018-06-10T07:35:08.022Z,31.33
2018-06-10T07:36:12.323Z,30.45
2018-06-10T07:37:15.741Z,31.77
2018-06-10T07:38:19.155Z,31.87
2018-06-10T07:39:22.557Z,30.72
2018-06-10T07:40:27.047Z,31.42
2018-06-10T07:41:30.763Z,35.17
2018-06-10T07:42:34.168Z,32.83
2018-06-10T07:43:37.543Z,34.95
2018-06-10T07:44:40.935Z,32.23
2018-06-10T07:45:45.513Z,33.20
2018-06-10T07:46:48.950Z,36.45
2018-06-10T07:47:52.032Z,32.15
2018-06-10T07:48:55.113Z,31.02
2018-06-10T07:49:58.192Z,35.78
2018-06-10T07:51:02.733Z,35.85
2018-06-10T07:52:06.192Z,38.80
2018-06-10T07:53:09.601Z,40.83
2018-06-10T07:54:12.992Z,38.00
2018-06-10T07:55:17.433Z,38.28
2018-06-10T07:56:21.791Z,37.58
2018-06-10T07:57:25.215Z,40.55
2018-06-10T07:58:28.603Z,37.10
2018-06-10T07:59:31.999Z,33.38
2018-06-10T08:00:36.479Z,33.00
2018-06-10T08:01:39.927Z,38.58
2018-06-10T08:02:43.031Z,33.50
2018-06-10T08:03:46.126Z,40.12
2018-06-10T08:04:49.527Z,38.95
2018-06-10T08:05:54.388Z,36.40
2018-06-10T08:06:57.583Z,37.00
2018-06-10T08:08:00.685Z,35.28
2018-06-10T08:09:05.688Z,37.88
2018-06-10T08:10:10.292Z,38.88
2018-06-10T08:11:14.832Z,38.85
2018-06-10T08:12:18.264Z,36.83
2018-06-10T08:13:21.676Z,37.28
2018-06-10T08:14:25.100Z,40.12
2018-06-10T08:15:29.512Z,40.12
2018-06-10T08:16:32.943Z,44.25
2018-06-10T08:17:36.339Z,42.50
2018-06-10T08:18:39.777Z,41.42
2018-06-10T08:19:43.147Z,40.08
2018-06-10T08:20:47.624Z,43.80
2018-06-10T08:21:51.024Z,43.10
2018-06-10T08:22:54.404Z,41.58
2018-06-10T08:23:57.821Z,37.05
2018-06-10T08:25:01.218Z,43.73
2018-06-10T08:26:05.682Z,48.05
2018-06-10T08:27:09.127Z,42.25
2018-06-10T08:28:12.548Z,42.67
2018-06-10T08:29:15.955Z,47.45
2018-06-10T08:30:19.958Z,42.93
2018-06-10T08:31:24.960Z,42.08
2018-06-10T08:32:28.375Z,43.50
2018-06-10T08:33:31.462Z,48.95
2018-06-10T08:34:34.561Z,48.38
2018-06-10T08:35:39.358Z,47.27
2018-06-10T08:36:42.780Z,44.70
2018-06-10T08:37:46.168Z,48.48
2018-06-10T08:38:49.560Z,47.70
2018-06-10T08:39:52.976Z,47.17
2018-06-10T08:40:57.574Z,50.23
2018-06-10T08:42:00.708Z,47.25
2018-06-10T08:43:04.171Z,50.83
2018-06-10T08:45:13.103Z,42.53
2018-06-10T08:46:17.586Z,44.38
2018-06-10T08:47:21.004Z,44.83
2018-06-10T08:48:24.459Z,42.30
2018-06-10T08:49:27.855Z,43.92
2018-06-10T08:50:32.234Z,40.95
2018-06-10T08:51:35.635Z,41.53
2018-06-10T08:52:39.035Z,41.48
2018-06-10T08:53:42.443Z,44.53
2018-06-10T08:54:45.833Z,41.63
2018-06-10T08:55:50.335Z,41.45
2018-06-10T08:56:53.835Z,42.83
2018-06-10T08:57:57.260Z,44.60
2018-06-10T08:59:00.659Z,42.62
2018-06-10T09:00:05.279Z,41.58
2018-06-10T09:01:09.958Z,47.70
2018-06-10T09:02:13.500Z,44.85
2018-06-10T09:03:16.895Z,43.10
2018-06-10T09:04:20.284Z,42.93
2018-06-10T09:05:24.795Z,44.58
2018-06-10T09:06:28.979Z,43.95
2018-06-10T09:07:32.387Z,47.23
2018-06-10T09:08:35.531Z,45.98
2018-06-10T09:09:38.873Z,47.93
2018-06-10T09:10:43.284Z,48.92
2018-06-10T09:11:46.709Z,44.63
2018-06-10T09:12:50.139Z,46.58
2018-06-10T09:13:53.230Z,52.55
2018-06-10T09:14:56.320Z,47.62
2018-06-10T09:15:59.717Z,49.42
2018-06-10T09:17:03.119Z,46.85
2018-06-10T09:18:06.516Z,47.27
2018-06-10T09:19:09.903Z,49.63
2018-06-10T09:20:14.277Z,46.48
2018-06-10T09:21:18.642Z,50.70
2018-06-10T09:22:22.065Z,53.17
2018-06-10T09:23:25.457Z,48.00
2018-06-10T09:24:28.852Z,51.40
2018-06-10T09:25:33.364Z,48.20
2018-06-10T09:26:36.804Z,61.08
2018-06-10T09:27:39.882Z,60.92
2018-06-10T09:28:43.006Z,62.78
2018-06-10T09:29:46.602Z,59.50
2018-06-10T09:30:51.207Z,65.95
2018-06-10T09:31:54.655Z,64.80
2018-06-10T09:32:58.052Z,62.58
2018-06-10T09:34:01.457Z,60.85
2018-06-10T09:35:05.668Z,65.60
2018-06-10T09:36:10.210Z,59.23
2018-06-10T09:37:13.649Z,60.75
2018-06-10T09:38:17.031Z,66.05
2018-06-10T09:39:20.419Z,58.60
2018-06-10T09:40:24.910Z,59.95
2018-06-10T09:41:29.214Z,59.38
2018-06-10T09:42:32.627Z,59.08
2018-06-10T09:43:36.012Z,58.25
2018-06-10T09:44:39.395Z,59.05
2018-06-10T09:45:43.876Z,54.73
2018-06-10T09:46:47.075Z,53.87
2018-06-10T09:47:50.479Z,54.90
2018-06-10T09:48:53.868Z,62.73
2018-06-10T09:49:57.281Z,58.13
2018-06-10T09:51:02.161Z,58.75
2018-06-10T09:52:05.615Z,61.02
2018-06-10T09:53:09.063Z,59.95
2018-06-10T09:54:12.453Z,59.00
2018-06-10T09:55:16.782Z,57.93
2018-06-10T09:56:20.599Z,70.10
2018-06-10T09:57:23.728Z,69.27
2018-06-10T09:58:27.159Z,64.90
2018-06-10T09:59:30.587Z,55.23
2018-06-10T10:00:35.004Z,64.85
2018-06-10T10:01:38.433Z,60.12
2018-06-10T10:02:41.847Z,63.20
2018-06-10T10:03:45.243Z,58.63
2018-06-10T10:04:48.324Z,62.17
2018-06-10T10:05:52.144Z,58.25
2018-06-10T10:06:55.551Z,58.55
2018-06-10T10:07:58.953Z,62.08
2018-06-10T10:09:02.405Z,61.45
2018-06-10T10:10:13.272Z,58.25
2018-06-10T10:11:19.141Z,54.70
2018-06-10T10:12:22.262Z,59.70
2018-06-10T10:13:25.352Z,57.67
2018-06-10T10:14:28.556Z,57.90
2018-06-10T10:15:33.352Z,64.53
2018-06-10T10:16:36.767Z,58.58
2018-06-10T10:17:40.157Z,63.25
2018-06-10T10:18:43.539Z,63.28
2018-06-10T10:19:46.952Z,57.88
2018-06-10T10:20:51.465Z,61.35
2018-06-10T10:21:54.583Z,59.70
2018-06-10T10:22:57.687Z,58.78
2018-06-10T10:24:01.075Z,56.90
2018-06-10T10:25:06.310Z,55.63
2018-06-10T10:26:11.332Z,60.20
2018-06-10T10:27:14.752Z,54.10
2018-06-10T10:28:18.144Z,53.68
2018-06-10T10:29:21.539Z,61.23
2018-06-10T10:30:26.135Z,51.08
2018-06-10T10:31:30.107Z,53.55
2018-06-10T10:32:33.504Z,55.25
2018-06-10T10:33:36.883Z,56.63
2018-06-10T10:34:40.319Z,55.30
2018-06-10T10:35:44.104Z,59.70
2018-06-10T10:36:47.302Z,58.55
2018-06-10T10:37:50.387Z,54.50
2018-06-10T10:38:53.765Z,57.65
2018-06-10T10:39:57.152Z,55.90
2018-06-10T10:41:01.576Z,57.95
2018-06-10T10:42:05.009Z,60.90
2018-06-10T10:43:08.391Z,55.12
2018-06-10T10:44:11.767Z,60.95
2018-06-10T10:45:16.101Z,56.90
2018-06-10T10:46:20.457Z,56.83
2018-06-10T10:47:23.861Z,55.35
2018-06-10T10:48:27.252Z,55.25
2018-06-10T10:49:30.650Z,55.20
2018-06-10T10:50:35.152Z,58.90
2018-06-10T10:51:38.615Z,54.35
2018-06-10T10:52:42.016Z,49.48
2018-06-10T10:53:45.408Z,49.88
2018-06-10T10:54:48.847Z,53.00
2018-06-10T10:55:53.520Z,53.85
2018-06-10T10:56:56.936Z,54.63
2018-06-10T10:58:00.343Z,55.35
2018-06-10T10:59:03.731Z,60.58
2018-06-10T11:00:09.147Z,60.03
2018-06-10T11:01:12.985Z,56.33
2018-06-10T11:02:16.403Z,63.28
2018-06-10T11:03:19.819Z,60.63
2018-06-10T11:04:23.215Z,60.75
2018-06-10T11:05:27.727Z,60.90
2018-06-10T11:06:31.144Z,62.05
2018-06-10T11:07:34.548Z,66.10
2018-06-10T11:08:38.176Z,61.80
2018-06-10T11:09:41.591Z,58.38
2018-06-10T11:10:45.990Z,57.85
2018-06-10T11:11:49.408Z,61.58
2018-06-10T11:12:52.798Z,64.75
2018-06-10T11:13:56.202Z,57.20
2018-06-10T11:14:59.615Z,64.50
2018-06-10T11:16:04.044Z,62.20
2018-06-10T11:17:07.463Z,65.52
2018-06-10T11:18:10.851Z,68.30
2018-06-10T11:19:14.266Z,61.33
2018-06-10T11:20:20.278Z,66.92
2018-06-10T11:21:25.661Z,62.78
2018-06-10T11:22:28.807Z,63.42
2018-06-10T11:23:32.195Z,68.42
2018-06-10T11:24:35.617Z,66.77
2018-06-10T11:25:39.954Z,65.12
2018-06-10T11:26:43.368Z,68.42
2018-06-10T11:27:46.754Z,66.22
2018-06-10T11:28:50.190Z,67.08
2018-06-10T11:29:53.601Z,64.95
2018-06-10T11:30:58.175Z,66.85
2018-06-10T11:32:01.303Z,71.05
2018-06-10T11:33:04.691Z,71.10
2018-06-10T11:34:08.076Z,71.77
2018-06-10T11:35:13.024Z,71.10
2018-06-10T11:36:17.552Z,68.72
2018-06-10T11:37:21.019Z,67.53
2018-06-10T11:38:24.399Z,72.10
2018-06-10T11:39:27.792Z,65.35
2018-06-10T11:40:32.318Z,63.17
2018-06-10T11:41:35.971Z,66.92
2018-06-10T11:42:39.359Z,70.30
2018-06-10T11:43:42.759Z,67.50
2018-06-10T11:44:46.151Z,68.65
2018-06-10T11:45:50.626Z,73.07
2018-06-10T11:46:54.058Z,67.40
2018-06-10T11:47:57.487Z,69.55
2018-06-10T11:49:00.578Z,66.90
2018-06-10T11:50:04.449Z,67.00
2018-06-10T11:51:08.364Z,68.75
2018-06-10T11:52:11.839Z,66.02
2018-06-10T11:53:15.219Z,66.75
2018-06-10T11:54:18.607Z,64.42
2018-06-10T11:55:23.018Z,63.00
2018-06-10T11:56:26.899Z,63.68
2018-06-10T11:57:30.020Z,65.05
2018-06-10T11:58:33.110Z,61.92
2018-06-10T11:59:36.198Z,69.10
2018-06-10T12:00:40.700Z,70.22
2018-06-10T12:01:44.835Z,67.65
2018-06-10T12:02:48.223Z,68.83
2018-06-10T12:03:51.613Z,61.92
2018-06-10T12:04:54.995Z,67.12
2018-06-10T12:05:59.540Z,67.85
2018-06-10T12:07:02.984Z,63.63
2018-06-10T12:08:06.382Z,60.08
2018-06-10T12:09:09.791Z,59.38
2018-06-10T12:10:15.454Z,57.38
2018-06-10T12:11:19.855Z,62.73
2018-06-10T12:12:22.983Z,61.18
2018-06-10T12:13:26.383Z,61.02
2018-06-10T12:14:29.814Z,65.12
2018-06-10T12:15:33.559Z,65.92
2018-06-10T12:16:37.044Z,65.42
2018-06-10T12:17:40.443Z,68.90
2018-06-10T12:18:43.823Z,67.82
2018-06-10T12:19:47.219Z,73.73
2018-06-10T12:20:51.674Z,69.42
2018-06-10T12:21:55.079Z,64.25
2018-06-10T12:22:58.500Z,69.90
2018-06-10T12:24:01.901Z,66.65
2018-06-10T12:25:06.425Z,72.80
2018-06-10T12:26:10.941Z,70.95
2018-06-10T12:27:14.052Z,74.03
2018-06-10T12:28:17.463Z,73.75
2018-06-10T12:29:20.933Z,70.55
2018-06-10T12:30:24.838Z,71.10
2018-06-10T12:31:29.907Z,73.70
2018-06-10T12:32:33.295Z,72.67
2018-06-10T12:33:36.707Z,68.33
2018-06-10T12:34:40.095Z,72.30
2018-06-10T12:35:44.984Z,71.70
2018-06-10T12:36:48.100Z,68.97
2018-06-10T12:37:51.210Z,67.13
2018-06-10T12:38:54.643Z,66.47
2018-06-10T12:39:58.043Z,63.95
2018-06-10T12:41:02.524Z,67.53
2018-06-10T12:42:05.637Z,62.67
2018-06-10T12:43:08.740Z,69.50
2018-06-10T12:44:12.151Z,65.03
2018-06-10T12:45:16.640Z,66.45
2018-06-10T12:46:21.141Z,63.70
2018-06-10T12:47:24.567Z,65.22
2018-06-10T12:48:27.956Z,58.65
2018-06-10T12:49:31.360Z,60.00
2018-06-10T12:50:35.724Z,59.90
2018-06-10T12:51:39.139Z,54.23
2018-06-10T12:52:42.536Z,60.55
2018-06-10T12:53:45.940Z,57.13
2018-06-10T12:54:49.254Z,55.23
2018-06-10T12:55:53.750Z,56.13
2018-06-10T12:56:57.182Z,55.88
2018-06-10T12:58:00.569Z,56.28
2018-06-10T12:59:03.960Z,61.13
2018-06-10T13:00:08.504Z,56.90
2018-06-10T13:01:13.111Z,61.55
2018-06-10T13:02:16.556Z,53.52
2018-06-10T13:03:19.955Z,58.92
2018-06-10T13:04:23.344Z,52.88
2018-06-10T13:05:28.201Z,51.98
2018-06-10T13:06:31.628Z,64.37
2018-06-10T13:07:35.049Z,51.90
2018-06-10T13:08:38.464Z,52.30
2018-06-10T13:09:41.562Z,49.45
2018-06-10T13:10:46.111Z,49.93
2018-06-10T13:11:49.547Z,53.45
2018-06-10T13:12:52.635Z,51.50
2018-06-10T13:13:55.714Z,51.40
2018-06-10T13:14:58.791Z,49.80
2018-06-10T13:16:02.554Z,49.60
2018-06-10T13:17:05.678Z,49.93
2018-06-10T13:18:09.099Z,48.63
2018-06-10T13:19:12.560Z,51.42
2018-06-10T13:20:17.130Z,47.30
2018-06-10T13:21:22.293Z,42.67
2018-06-10T13:22:25.739Z,40.73
2018-06-10T13:23:29.127Z,35.97
2018-06-10T13:24:32.503Z,35.60
2018-06-10T13:25:36.851Z,30.80
2018-06-10T13:26:40.300Z,31.82
2018-06-10T13:27:43.719Z,32.53
2018-06-10T13:28:46.814Z,32.13
2018-06-10T13:29:49.916Z,33.18
2018-06-10T13:30:54.488Z,30.53
2018-06-10T13:31:57.915Z,32.57
2018-06-10T13:33:01.384Z,32.85
2018-06-10T13:34:04.815Z,33.53
2018-06-10T13:35:09.141Z,31.53
2018-06-10T13:36:13.497Z,27.57
2018-06-10T13:37:16.931Z,30.85
2018-06-10T13:38:20.335Z,25.45
2018-06-10T13:39:23.747Z,27.80
2018-06-10T13:40:28.304Z,24.35
2018-06-10T13:41:31.695Z,22.05